Time;durP1;ratioP1;P1;durP2;ratioP2;P2;SDS_P1;SDS_P2;PMS_P1;PMS_P2;Temp;Humidity;BMP_temperature;BMP_pressure;BME280_temperature;BME280_humidity;BME280_pressure;Samples;Min_cycle;Max_cycle;Signal;HPM_P1;HPM_P2
2022/01/27 00:07:19;;;;;;;27.07;13.72;;;;;;;0.27;84.13;100852.95;2016903;86;21157;-81
2022/01/27 00:13:44;;;;;;;24.77;13.22;;;;;;;0.30;84.15;100863.69;2020602;85;21068;-80
2022/01/27 00:16:53;;;;;;;28.32;13.83;;;;;;;0.31;84.11;100864.05;2016587;86;21520;-80
2022/01/27 00:19:52;;;;;;;30.48;15.08;;;;;;;0.30;84.15;100855.39;2019034;86;21087;-80
2022/01/27 00:22:56;;;;;;;32.85;16.10;;;;;;;0.32;84.13;100847.02;2017665;86;21011;-81
2022/01/27 00:25:57;;;;;;;29.60;15.65;;;;;;;0.32;84.20;100835.27;2018110;85;21122;-80
2022/01/27 00:29:00;;;;;;;32.75;15.58;;;;;;;0.32;84.21;100835.27;2033337;86;21174;-80
2022/01/27 00:32:06;;;;;;;30.80;15.72;;;;;;;0.32;84.22;100831.35;2027508;86;21027;-81
2022/01/27 00:35:14;;;;;;;30.88;15.05;;;;;;;0.32;84.22;100824.83;2022285;86;21437;-81
2022/01/27 00:38:19;;;;;;;30.75;14.07;;;;;;;0.33;84.29;100821.28;2032564;86;21602;-81
2022/01/27 00:41:24;;;;;;;32.90;15.15;;;;;;;0.34;84.32;100815.59;2032141;86;21085;-81
2022/01/27 00:44:26;;;;;;;28.95;13.85;;;;;;;0.34;84.32;100819.06;2036079;86;21070;-81
2022/01/27 00:47:28;;;;;;;37.63;16.87;;;;;;;0.35;84.36;100823.34;2032009;86;20976;-81
2022/01/27 00:50:38;;;;;;;30.10;15.53;;;;;;;0.37;84.33;100828.50;2030531;85;20992;-81
2022/01/27 00:54:04;;;;;;;32.90;15.90;;;;;;;0.37;84.35;100831.11;2007084;86;21866;-79
2022/01/27 00:56:57;;;;;;;33.13;17.00;;;;;;;0.38;84.37;100828.40;2026237;86;21004;-80
2022/01/27 00:59:58;;;;;;;36.60;17.05;;;;;;;0.40;84.41;100815.28;2028303;85;21096;-80
2022/01/27 01:03:06;;;;;;;32.75;16.73;;;;;;;0.40;84.37;100820.03;2031830;85;21095;-80
2022/01/27 01:14:25;;;;;;;;;;;;;;;0.42;84.42;100803.83;2033573;86;21054;-81
2022/01/27 01:15:49;;;;;;;33.55;16.45;;;;;;;0.43;84.39;100796.83;2016134;85;20155;-81
2022/01/27 01:19:08;;;;;;;36.70;18.00;;;;;;;0.41;84.40;100802.12;2048548;85;21534;-81
2022/01/27 01:36:04;;;;;;;35.25;17.27;;;;;;;0.45;84.47;100783.20;2037245;86;21582;-80
2022/01/27 01:38:57;;;;;;;36.83;16.30;;;;;;;0.46;84.47;100778.84;2024625;86;21099;-81
2022/01/27 01:42:13;;;;;;;36.38;16.73;;;;;;;0.47;84.48;100792.27;2031771;85;21126;-80
2022/01/27 01:45:17;;;;;;;33.75;16.12;;;;;;;0.47;84.51;100787.88;2029332;86;21730;-82
2022/01/27 01:48:19;;;;;;;31.25;15.58;;;;;;;0.48;84.45;100780.88;2032817;85;21097;-82
2022/01/27 01:51:38;;;;;;;31.57;15.15;;;;;;;0.51;84.48;100776.80;2031979;86;21023;-80
2022/01/27 01:54:47;;;;;;;35.43;16.48;;;;;;;0.52;84.39;100771.50;2031618;85;21113;-80
2022/01/27 01:57:50;;;;;;;32.50;15.83;;;;;;;0.54;84.33;100776.65;2032451;86;21648;-81
2022/01/27 02:00:54;;;;;;;35.98;17.07;;;;;;;0.56;84.36;100772.16;2030334;86;21482;-81
2022/01/27 02:03:55;;;;;;;34.65;17.02;;;;;;;0.58;84.34;100772.45;2030513;86;21102;-81
2022/01/27 02:07:01;;;;;;;36.38;18.37;;;;;;;0.57;84.30;100764.72;2033876;86;21582;-81
2022/01/27 02:20:11;;;;;;;34.58;15.23;;;;;;;0.61;84.23;100763.60;2027476;86;21154;-80
2022/01/27 02:23:17;;;;;;;33.05;16.62;;;;;;;0.65;84.11;100769.05;2029290;86;21067;-80
2022/01/27 02:26:23;;;;;;;36.58;15.65;;;;;;;0.65;84.16;100768.58;2032827;86;21015;-79
2022/01/27 02:29:26;;;;;;;30.25;14.47;;;;;;;0.63;84.15;100757.37;2015044;86;21117;-78
2022/01/27 02:32:31;;;;;;;29.50;14.93;;;;;;;0.64;84.14;100751.67;2018480;86;21082;-79
2022/01/27 02:35:46;;;;;;;29.50;14.43;;;;;;;0.64;84.14;100747.75;2021737;86;21122;-79
2022/01/27 02:38:59;;;;;;;28.77;14.15;;;;;;;0.64;84.13;100745.98;2019196;86;21061;-79
2022/01/27 02:42:28;;;;;;;34.73;15.30;;;;;;;0.66;84.13;100748.05;1957942;88;21099;-80
2022/01/27 02:45:50;;;;;;;35.28;15.85;;;;;;;0.67;84.12;100737.12;1983829;87;21596;-78
2022/01/27 02:48:54;;;;;;;33.63;15.60;;;;;;;0.69;84.13;100734.44;1957095;89;21027;-81
2022/01/27 02:51:56;;;;;;;26.07;13.50;;;;;;;0.70;84.21;100735.64;2013387;86;22448;-78
2022/01/27 02:54:59;;;;;;;30.23;14.40;;;;;;;0.69;84.12;100735.28;2017943;86;20977;-78
2022/01/27 02:58:05;;;;;;;26.35;12.85;;;;;;;0.69;84.12;100733.97;2019063;85;21166;-78
2022/01/27 03:01:10;;;;;;;32.83;14.83;;;;;;;0.70;84.04;100735.64;2015965;86;21071;-81
2022/01/27 03:04:34;;;;;;;30.30;14.75;;;;;;;0.71;84.04;100728.67;2016627;86;21101;-79
2022/01/27 03:07:37;;;;;;;30.08;12.98;;;;;;;0.73;84.00;100731.55;2018605;86;21107;-79
2022/01/27 03:10:45;;;;;;;29.60;13.40;;;;;;;0.73;83.96;100725.02;2017679;86;21020;-79
2022/01/27 03:13:46;;;;;;;30.17;14.10;;;;;;;0.75;84.01;100731.00;2002018;86;21628;-79
2022/01/27 03:20:08;;;;;;;26.87;13.60;;;;;;;0.74;84.05;100724.11;2018164;86;21472;-79
2022/01/27 03:23:24;;;;;;;25.08;12.65;;;;;;;0.74;84.05;100717.58;2023011;86;21051;-79
2022/01/27 03:26:27;;;;;;;28.42;13.15;;;;;;;0.76;84.08;100714.42;2020656;86;20992;-79
2022/01/27 03:29:38;;;;;;;27.98;12.68;;;;;;;0.78;84.06;100716.92;2040897;84;21604;-80
2022/01/27 03:32:42;;;;;;;29.77;12.82;;;;;;;0.78;84.01;100698.16;2052618;85;22331;-81
2022/01/27 03:35:43;;;;;;;32.75;14.83;;;;;;;0.78;84.05;100701.25;2046868;85;20990;-79
2022/01/27 03:38:48;;;;;;;24.52;13.30;;;;;;;0.79;84.10;100696.39;2026197;85;21470;-79
2022/01/27 03:41:55;;;;;;;26.17;11.88;;;;;;;0.80;84.04;100691.09;2048728;85;21105;-80
2022/01/27 03:45:01;;;;;;;26.87;14.00;;;;;;;0.81;84.05;100694.53;2012056;86;21097;-80
2022/01/27 03:48:09;;;;;;;25.43;12.78;;;;;;;0.81;84.05;100691.45;2030238;86;21068;-81
2022/01/27 03:51:13;;;;;;;27.35;12.95;;;;;;;0.81;84.03;100684.08;1975287;89;21069;-80
2022/01/27 03:54:19;;;;;;;30.12;14.63;;;;;;;0.82;84.05;100685.78;2031622;86;21052;-79
2022/01/27 03:57:29;;;;;;;29.02;12.63;;;;;;;0.81;84.05;100669.24;2038148;84;21186;-79
2022/01/27 04:00:41;;;;;;;24.87;11.83;;;;;;;0.81;83.91;100663.19;1991519;87;21079;-79
2022/01/27 04:03:43;;;;;;;27.25;12.43;;;;;;;0.81;83.89;100661.41;2029686;85;21009;-81
2022/01/27 04:06:59;;;;;;;26.27;12.45;;;;;;;0.84;83.84;100655.16;1981969;89;21098;-81
2022/01/27 04:10:03;;;;;;;26.00;12.03;;;;;;;0.85;83.68;100662.92;2029657;85;21503;-80
2022/01/27 04:13:10;;;;;;;23.87;11.22;;;;;;;0.84;83.72;100662.53;1976902;89;21071;-80
2022/01/27 04:16:24;;;;;;;21.90;9.88;;;;;;;0.83;83.71;100658.25;2027921;86;22395;-80
2022/01/27 04:19:26;;;;;;;24.50;10.78;;;;;;;0.83;83.56;100659.55;1972239;89;21078;-81
2022/01/27 04:22:30;;;;;;;21.30;10.00;;;;;;;0.83;83.59;100644.34;2047937;86;21062;-80
2022/01/27 04:25:41;;;;;;;24.60;11.10;;;;;;;0.83;83.50;100651.71;2022373;86;21092;-80
2022/01/27 04:28:52;;;;;;;22.70;10.25;;;;;;;0.84;83.48;100656.47;1968694;89;21121;-81
2022/01/27 04:31:54;;;;;;;22.80;10.20;;;;;;;0.83;83.44;100642.56;2019312;86;21073;-81
2022/01/27 04:35:02;;;;;;;20.50;10.50;;;;;;;0.83;83.49;100648.27;2016432;86;21581;-80
2022/01/27 04:41:25;;;;;;;;;;;;;;;0.84;83.42;100644.23;2021023;86;21063;-80
2022/01/27 04:44:53;;;;;;;21.27;9.93;;;;;;;0.83;83.42;100622.14;2015088;86;21237;-80
2022/01/27 04:48:05;;;;;;;18.75;9.28;;;;;;;0.81;83.29;100606.54;2017621;86;21089;-80
2022/01/27 04:51:11;;;;;;;20.23;10.05;;;;;;;0.79;83.29;100616.27;2018020;86;21110;-81
2022/01/27 04:54:23;;;;;;;18.27;10.18;;;;;;;0.80;83.25;100619.23;2012416;85;21537;-81
2022/01/27 04:57:39;;;;;;;;;;;;;;;;;;;;;
2022/01/27 05:00:32;;;;;;;21.30;9.25;;;;;;;0.80;83.14;100607.48;2016953;86;21138;-80
2022/01/27 05:03:42;;;;;;;20.17;9.83;;;;;;;0.78;83.13;100604.12;2020010;86;21099;-80
2022/01/27 05:06:43;;;;;;;16.93;9.18;;;;;;;0.80;83.26;100610.09;2020191;85;21080;-81
2022/01/27 05:09:56;;;;;;;17.70;9.25;;;;;;;0.81;83.05;100601.31;2018321;86;21501;-80
2022/01/27 05:13:00;;;;;;;19.75;9.65;;;;;;;0.82;83.01;100606.10;2021508;86;21017;-79
2022/01/27 05:16:02;;;;;;;22.82;10.08;;;;;;;0.82;83.08;100609.55;2013506;85;21143;-79
2022/01/27 05:19:06;;;;;;;19.10;9.28;;;;;;;0.82;83.04;100606.10;2015312;86;22463;-80
2022/01/27 05:22:10;;;;;;;18.82;9.43;;;;;;;0.82;83.11;100599.57;2017513;86;21069;-80
2022/01/27 05:25:14;;;;;;;21.30;10.15;;;;;;;0.81;83.04;100600.01;2003903;86;21540;-79
2022/01/27 05:28:23;;;;;;;16.80;8.63;;;;;;;0.83;83.06;100599.46;2020749;86;21114;-79
2022/01/27 05:31:28;;;;;;;18.98;9.20;;;;;;;0.83;82.99;100585.09;2024708;85;21137;-80
2022/01/27 05:34:30;;;;;;;20.10;10.23;;;;;;;0.84;82.85;100580.23;2019231;86;21072;-80
2022/01/27 05:37:31;;;;;;;19.10;9.48;;;;;;;0.87;82.87;100582.69;2017089;86;21044;-81
2022/01/27 05:40:33;;;;;;;20.88;10.70;;;;;;;0.88;82.94;100579.13;2018179;86;21041;-79
2022/01/27 05:43:38;;;;;;;17.45;9.10;;;;;;;0.88;82.77;100575.68;2018019;86;21380;-80
2022/01/27 05:46:41;;;;;;;22.00;8.38;;;;;;;0.87;82.77;100564.39;2017644;86;21064;-79
2022/01/27 05:49:43;;;;;;;20.50;9.65;;;;;;;0.89;82.73;100569.51;2040433;85;21609;-79
2022/01/27 05:52:46;;;;;;;15.78;8.70;;;;;;;0.88;82.79;100566.06;2016892;86;21040;-80
2022/01/27 05:55:48;;;;;;;16.20;8.95;;;;;;;0.90;82.71;100552.89;2018767;86;21070;-80
2022/01/27 05:58:56;;;;;;;19.92;10.18;;;;;;;0.91;82.58;100555.06;2019147;86;21029;-80
2022/01/27 06:01:56;;;;;;;18.67;9.48;;;;;;;0.92;82.69;100550.19;2014415;86;21692;-80
2022/01/27 06:05:21;;;;;;;18.05;9.48;;;;;;;0.93;82.64;100552.73;2041728;85;21054;-81
2022/01/27 06:08:37;;;;;;;17.15;8.90;;;;;;;0.95;82.59;100557.84;2020725;86;21145;-80
2022/01/27 06:11:38;;;;;;;17.32;8.63;;;;;;;0.95;82.44;100558.67;2015343;86;21141;-79
2022/01/27 06:14:42;;;;;;;16.82;8.68;;;;;;;0.94;82.52;100562.23;2018636;86;21737;-80
2022/01/27 06:17:55;;;;;;;16.87;8.95;;;;;;;0.95;82.48;100573.05;2017443;86;21036;-79
2022/01/27 06:21:03;;;;;;;34.00;14.85;;;;;;;0.95;82.48;100566.98;2019469;86;21071;-80
2022/01/27 06:24:09;;;;;;;27.60;11.25;;;;;;;0.95;82.48;100556.53;2016015;86;21053;-80
2022/01/27 06:27:26;;;;;;;;;;;;;;;;;;;;;
2022/01/27 06:30:34;;;;;;;20.27;11.20;;;;;;;1.02;82.48;100565.69;2024198;86;21005;-80
2022/01/27 06:33:40;;;;;;;18.37;10.15;;;;;;;1.03;82.54;100556.43;2023386;87;21129;-81
2022/01/27 06:36:45;;;;;;;16.02;8.78;;;;;;;1.03;82.42;100549.90;2024932;85;21043;-80
2022/01/27 06:39:49;;;;;;;17.37;8.63;;;;;;;1.05;82.49;100556.35;2023668;87;21041;-80
2022/01/27 06:42:50;;;;;;;17.12;8.43;;;;;;;1.02;82.49;100539.08;2024576;87;21140;-81
2022/01/27 06:45:53;;;;;;;16.27;8.78;;;;;;;1.01;82.48;100540.47;2039081;85;21065;-80
2022/01/27 06:48:55;;;;;;;12.33;6.95;;;;;;;1.01;82.49;100547.00;2023244;87;21065;-82
2022/01/27 06:52:03;;;;;;;14.65;7.53;;;;;;;1.00;82.45;100553.17;2026121;86;21002;-81
2022/01/27 06:55:15;;;;;;;14.63;8.23;;;;;;;0.98;82.21;100549.81;2026432;87;21559;-79
2022/01/27 06:58:36;;;;;;;12.28;7.20;;;;;;;1.00;82.30;100542.25;2024467;87;21271;-83
2022/01/27 07:01:42;;;;;;;13.98;6.95;;;;;;;1.01;82.08;100550.45;2026539;85;21071;-82
2022/01/27 07:04:46;;;;;;;15.58;7.40;;;;;;;0.99;82.15;100534.05;2025243;85;21028;-78
2022/01/27 07:08:02;;;;;;;11.78;6.58;;;;;;;0.99;82.02;100535.36;2002457;87;21106;-82
2022/01/27 07:10:59;;;;;;;16.37;8.53;;;;;;;0.98;81.95;100549.34;2025961;87;21072;-82
2022/01/27 07:14:04;;;;;;;13.53;6.70;;;;;;;0.95;81.67;100542.16;2033569;85;21049;-78
2022/01/27 07:17:09;;;;;;;18.52;8.05;;;;;;;0.97;81.67;100551.59;2025892;85;21093;-78
2022/01/27 07:20:28;;;;;;;14.78;6.90;;;;;;;0.98;81.76;100532.35;2024999;87;21575;-78
2022/01/27 07:23:33;;;;;;;16.77;7.75;;;;;;;1.02;81.58;100526.49;2024612;86;21612;-77
2022/01/27 07:26:35;;;;;;;14.30;7.55;;;;;;;1.01;81.45;100520.88;2024145;87;21066;-78
2022/01/27 07:29:40;;;;;;;11.80;7.12;;;;;;;1.00;81.61;100516.59;2040466;85;21064;-79
2022/01/27 07:32:52;;;;;;;14.43;7.78;;;;;;;0.95;81.78;100506.41;2024103;86;21107;-81
2022/01/27 07:36:06;;;;;;;12.00;6.80;;;;;;;0.94;81.90;100501.30;2029778;86;21612;-82
2022/01/27 07:39:13;;;;;;;15.85;7.65;;;;;;;0.92;81.78;100494.02;2030519;86;21099;-79
2022/01/27 07:42:13;;;;;;;15.30;7.53;;;;;;;0.91;81.85;100490.57;2027819;86;21067;-79
2022/01/27 07:45:18;;;;;;;12.63;7.70;;;;;;;0.92;81.86;100500.08;2026386;86;21075;-80
2022/01/27 07:48:41;;;;;;;15.08;8.43;;;;;;;0.92;81.71;100501.38;2027648;85;21058;-80
2022/01/27 07:51:40;;;;;;;15.38;8.00;;;;;;;0.93;81.80;100504.83;2027252;86;21060;-81
2022/01/27 07:54:52;;;;;;;18.10;7.80;;;;;;;0.95;81.90;100499.88;2027234;85;21068;-79
2022/01/27 07:57:53;;;;;;;15.58;8.45;;;;;;;0.97;81.81;100481.51;2029962;86;21073;-79
2022/01/27 08:00:59;;;;;;;16.05;7.83;;;;;;;0.95;81.85;100478.14;2026172;86;21096;-79
2022/01/27 08:04:06;;;;;;;22.42;9.75;;;;;;;0.94;81.89;100470.78;2025651;86;21091;-80
2022/01/27 08:07:36;;;;;;;18.60;9.53;;;;;;;0.94;81.96;100451.18;2027345;86;21117;-80
2022/01/27 08:10:44;;;;;;;17.90;8.65;;;;;;;0.98;81.98;100450.03;1996688;86;21089;-79
2022/01/27 08:14:09;;;;;;;18.12;9.03;;;;;;;1.02;81.95;100458.55;2042810;84;21067;-80
2022/01/27 08:17:17;;;;;;;17.17;9.28;;;;;;;1.06;81.92;100463.94;2020664;86;21120;-80
2022/01/27 08:20:20;;;;;;;17.07;8.63;;;;;;;1.09;81.78;100463.73;2026901;85;21036;-80
2022/01/27 08:23:22;;;;;;;19.92;10.20;;;;;;;1.09;81.73;100442.83;2027579;86;21032;-81
2022/01/27 08:26:43;;;;;;;17.65;10.03;;;;;;;1.09;81.74;100465.05;2027470;86;21091;-79
2022/01/27 08:29:52;;;;;;;21.57;11.57;;;;;;;1.08;81.67;100458.15;2025668;86;21150;-79
2022/01/27 08:33:05;;;;;;;20.08;10.50;;;;;;;1.12;81.63;100453.08;2014670;85;21067;-79
2022/01/27 08:36:11;;;;;;;19.17;9.40;;;;;;;1.14;81.44;100442.55;2017804;86;21061;-78
2022/01/27 08:39:16;;;;;;;17.87;9.95;;;;;;;1.15;81.38;100433.28;2013584;86;21512;-79
2022/01/27 08:42:21;;;;;;;23.50;10.68;;;;;;;1.17;81.17;100423.57;2036040;84;20998;-78
2022/01/27 08:45:29;;;;;;;18.73;10.75;;;;;;;1.16;80.92;100423.22;2020435;86;20985;-77
2022/01/27 08:48:43;;;;;;;19.12;9.93;;;;;;;1.16;81.05;100436.28;2018240;86;21090;-82
2022/01/27 08:51:44;;;;;;;21.90;9.78;;;;;;;1.14;80.27;100429.48;2018909;86;21099;-82
2022/01/27 08:54:48;;;;;;;27.42;10.93;;;;;;;1.13;80.59;100426.03;2020099;86;21024;-81
2022/01/27 08:57:55;;;;;;;28.95;11.48;;;;;;;1.11;80.47;100411.73;2015956;86;21087;-80
2022/01/27 09:01:04;;;;;;;43.17;14.40;;;;;;;1.12;80.19;100395.58;2015994;86;21107;-81
2022/01/27 09:04:05;;;;;;;39.55;14.78;;;;;;;1.12;80.24;100377.28;2034362;84;21554;-82
2022/01/27 09:07:15;;;;;;;28.47;12.28;;;;;;;1.12;80.11;100386.43;2018559;86;21005;-80
2022/01/27 09:10:27;;;;;;;29.52;11.30;;;;;;;1.14;80.20;100392.88;2018969;86;21087;-81
2022/01/27 09:13:39;;;;;;;24.25;11.73;;;;;;;1.16;80.35;100384.00;2016040;86;21778;-82
2022/01/27 09:16:49;;;;;;;23.83;13.05;;;;;;;1.18;80.43;100375.57;2014384;86;21545;-83
2022/01/27 09:19:51;;;;;;;24.75;12.85;;;;;;;1.22;80.59;100382.30;2016566;85;21651;-79
2022/01/27 09:23:14;;;;;;;26.97;13.25;;;;;;;1.27;80.57;100393.77;2020622;86;21011;-80
2022/01/27 09:26:50;;;;;;;28.27;14.75;;;;;;;1.28;80.65;100385.80;2016260;86;21089;-81
2022/01/27 09:29:55;;;;;;;25.35;13.55;;;;;;;1.29;80.55;100383.55;2016172;86;21533;-77
2022/01/27 09:32:58;;;;;;;28.42;15.03;;;;;;;1.32;80.64;100378.14;2017951;85;21094;-79
2022/01/27 09:36:11;;;;;;;33.78;14.68;;;;;;;1.36;80.68;100383.17;2015794;85;21104;-79
2022/01/27 09:39:12;;;;;;;29.90;14.70;;;;;;;1.39;80.67;100364.66;2019910;85;21005;-79
2022/01/27 09:42:14;;;;;;;32.38;14.85;;;;;;;1.43;80.66;100360.41;2017760;86;21535;-79
2022/01/27 09:45:20;;;;;;;25.12;13.18;;;;;;;1.48;80.71;100354.89;2013714;85;21612;-78
2022/01/27 09:48:39;;;;;;;27.95;13.08;;;;;;;1.53;80.46;100357.56;2016486;86;21090;-78
2022/01/27 09:51:47;;;;;;;34.50;14.35;;;;;;;1.59;80.47;100341.92;2012951;85;21588;-82
2022/01/27 09:54:46;;;;;;;27.07;12.55;;;;;;;1.65;80.18;100334.97;2015964;85;21015;-76
2022/01/27 09:57:50;;;;;;;25.90;13.03;;;;;;;1.72;80.19;100323.63;2017393;85;21599;-76
2022/01/27 10:00:56;;;;;;;24.35;12.65;;;;;;;1.79;80.07;100317.02;2015324;85;21119;-75
2022/01/27 10:04:06;;;;;;;28.60;13.30;;;;;;;1.83;79.60;100309.34;2023401;85;21626;-80
2022/01/27 10:07:15;;;;;;;26.48;11.97;;;;;;;1.84;79.34;100312.31;1994725;86;21035;-79
2022/01/27 10:10:26;;;;;;;25.97;13.48;;;;;;;1.86;79.08;100313.05;1980209;86;21068;-76
2022/01/27 10:13:39;;;;;;;22.45;11.20;;;;;;;1.86;79.00;100300.41;2002123;85;21590;-76
2022/01/27 10:16:42;;;;;;;25.92;13.43;;;;;;;1.86;78.72;100303.89;1982815;86;21112;-77
2022/01/27 10:19:54;;;;;;;27.82;14.23;;;;;;;1.90;79.14;100292.73;2015475;86;21099;-76
2022/01/27 10:23:33;;;;;;;26.97;13.38;;;;;;;1.95;78.82;100285.41;2012360;86;21065;-78
2022/01/27 10:26:42;;;;;;;28.70;14.78;;;;;;;1.94;78.58;100282.41;2020860;86;21115;-76
2022/01/27 10:33:00;;;;;;;33.02;14.78;;;;;;;1.91;78.53;100270.84;2017967;86;21624;-78
2022/01/27 10:36:44;;;;;;;26.77;13.80;;;;;;;1.90;78.42;100267.87;2018983;86;21594;-77
2022/01/27 10:39:50;;;;;;;28.62;13.65;;;;;;;1.88;78.25;100269.27;1998493;86;21100;-76
2022/01/27 10:43:19;;;;;;;31.10;14.43;;;;;;;1.89;78.24;100259.19;1978207;87;21132;-76
2022/01/27 10:46:29;;;;;;;32.50;16.23;;;;;;;1.92;77.95;100252.91;1975168;87;21126;-76
2022/01/27 10:49:37;;;;;;;31.42;16.25;;;;;;;1.96;78.17;100237.34;1980588;87;21089;-79
2022/01/27 10:52:56;;;;;;;29.60;15.35;;;;;;;2.00;78.44;100238.81;1977082;87;21089;-77
2022/01/27 10:55:43;;;;;;;33.42;16.12;;;;;;;2.02;78.21;100222.02;1976877;87;21587;-76
2022/01/27 10:58:45;;;;;;;29.27;15.48;;;;;;;2.05;78.00;100220.97;1979507;87;21611;-80
2022/01/27 11:01:51;;;;;;;27.73;14.75;;;;;;;2.07;78.11;100212.55;1977981;87;21035;-77
2022/01/27 11:04:56;;;;;;;33.25;15.23;;;;;;;2.07;77.83;100209.93;1980158;88;21502;-77
2022/01/27 11:08:25;;;;;;;30.90;15.35;;;;;;;2.07;77.71;100205.17;1979863;87;21106;-78
2022/01/27 11:11:27;;;;;;;29.20;15.13;;;;;;;2.08;78.00;100197.20;1972232;87;21076;-76
2022/01/27 11:14:31;;;;;;;39.83;19.57;;;;;;;2.12;78.17;100203.89;1980376;87;21051;-77
2022/01/27 11:17:37;;;;;;;29.40;15.10;;;;;;;2.16;78.22;100196.65;1979982;87;21105;-77
2022/01/27 11:24:08;;;;;;;36.75;17.60;;;;;;;2.11;78.25;100183.91;1981372;87;21072;-78
2022/01/27 11:27:06;;;;;;;34.95;16.48;;;;;;;2.08;78.74;100185.89;1976057;87;21132;-78
2022/01/27 11:30:22;;;;;;;33.60;16.50;;;;;;;2.04;78.87;100174.81;1984336;87;21076;-77
2022/01/27 11:33:51;;;;;;;42.98;17.95;;;;;;;1.96;79.05;100167.98;1988372;88;21086;-81
2022/01/27 11:37:18;;;;;;;50.63;19.05;;;;;;;1.89;79.43;100164.16;1998992;88;21108;-80
2022/01/27 11:40:42;;;;;;;48.35;18.87;;;;;;;1.84;79.69;100163.17;2003864;88;21089;-79
2022/01/27 11:43:45;;;;;;;43.30;19.35;;;;;;;1.77;79.84;100154.93;2000133;86;21102;-78
2022/01/27 11:47:28;;;;;;;36.68;17.57;;;;;;;1.75;79.99;100152.06;1996924;88;21047;-78
2022/01/27 11:53:56;;;;;;;42.58;19.62;;;;;;;1.62;80.38;100139.00;1990156;88;21106;-78
2022/01/27 11:56:57;;;;;;;37.93;17.35;;;;;;;1.57;80.53;100135.87;2009567;86;21094;-78
2022/01/27 12:00:21;;;;;;;41.23;19.73;;;;;;;1.52;80.70;100132.73;1965878;88;21017;-77
2022/01/27 12:03:23;;;;;;;39.85;18.30;;;;;;;1.50;80.95;100131.56;1945018;88;21069;-78
2022/01/27 12:06:32;;;;;;;38.20;17.70;;;;;;;1.52;81.18;100133.60;1985110;87;21560;-78
2022/01/27 12:09:38;;;;;;;38.02;16.82;;;;;;;1.53;81.29;100125.28;1989533;86;21089;-76
2022/01/27 12:12:48;;;;;;;35.52;16.12;;;;;;;1.55;81.50;100119.47;1985692;88;21063;-76
2022/01/27 12:16:39;;;;;;;30.50;15.23;;;;;;;1.57;81.58;100114.47;1968451;88;21043;-76
2022/01/27 12:20:01;;;;;;;49.93;20.15;;;;;;;1.59;81.65;100111.76;1967041;88;21097;-76
2022/01/27 12:23:14;;;;;;;38.48;17.20;;;;;;;1.59;81.76;100107.84;1964646;88;21016;-76
2022/01/27 12:26:12;;;;;;;37.23;17.32;;;;;;;1.61;81.98;100103.34;1964102;88;21630;-77
2022/01/27 12:29:51;;;;;;;37.13;16.93;;;;;;;1.62;82.05;100095.84;1964733;88;21542;-76
2022/01/27 12:33:05;;;;;;;44.00;19.27;;;;;;;1.64;82.20;100091.83;1958214;88;21088;-78
2022/01/27 12:39:31;;;;;;;37.45;17.92;;;;;;;1.63;82.54;100071.34;1978853;88;21389;-77
2022/01/27 12:42:36;;;;;;;46.55;21.73;;;;;;;1.63;82.76;100070.52;1985548;87;21055;-77
2022/01/27 12:45:43;;;;;;;45.20;22.22;;;;;;;1.64;82.91;100069.11;1990694;88;21042;-77
2022/01/27 12:49:04;;;;;;;42.90;20.80;;;;;;;1.67;83.08;100066.75;1988952;87;22220;-76
2022/01/27 12:52:07;;;;;;;41.00;19.85;;;;;;;1.61;82.99;100061.97;1987125;88;21127;-77
2022/01/27 12:55:25;;;;;;;37.40;19.48;;;;;;;1.48;82.90;100053.68;2011051;85;22146;-76
2022/01/27 12:58:32;;;;;;;41.48;19.45;;;;;;;1.38;82.99;100045.29;1989719;88;21106;-76
2022/01/27 13:01:34;;;;;;;42.78;19.67;;;;;;;1.27;83.16;100043.47;1989358;88;21018;-78
2022/01/27 13:04:39;;;;;;;37.42;17.92;;;;;;;1.20;83.31;100035.20;1988504;87;21065;-76
2022/01/27 13:07:47;;;;;;;41.00;18.48;;;;;;;1.14;83.41;100035.64;1988132;88;21041;-77
2022/01/27 13:10:56;;;;;;;37.40;18.17;;;;;;;1.11;83.70;100040.61;1990974;87;21026;-76
2022/01/27 13:14:07;;;;;;;35.28;17.92;;;;;;;1.08;83.68;100038.22;1985992;88;21936;-77
2022/01/27 13:17:22;;;;;;;39.20;17.65;;;;;;;1.04;83.76;100038.09;1991623;88;21102;-76
2022/01/27 13:20:51;;;;;;;44.40;19.75;;;;;;;1.03;84.05;100032.48;1982823;88;21116;-76
2022/01/27 13:23:46;;;;;;;40.38;19.42;;;;;;;0.99;83.93;100037.57;1986491;88;21565;-80
2022/01/27 13:26:46;;;;;;;37.78;17.82;;;;;;;0.96;84.43;100035.17;1990113;88;21158;-76
2022/01/27 13:30:00;;;;;;;33.80;16.23;;;;;;;0.90;84.37;100022.52;1992429;88;21594;-80
2022/01/27 13:32:59;;;;;;;36.23;17.00;;;;;;;0.87;84.40;100029.27;2015146;86;21605;-77
2022/01/27 13:36:06;;;;;;;34.73;17.52;;;;;;;0.83;84.38;100022.12;2014574;86;20991;-76
2022/01/27 13:39:34;;;;;;;;;;;;;;;;;;;;;
2022/01/27 13:42:17;;;;;;;35.68;17.57;;;;;;;0.81;84.49;100020.55;2013359;86;21036;-78
2022/01/27 13:45:18;;;;;;;37.55;19.10;;;;;;;0.82;84.71;100011.31;2018671;85;21051;-78
2022/01/27 13:48:25;;;;;;;39.92;19.12;;;;;;;0.84;84.87;100015.94;2012007;86;21054;-80
2022/01/27 13:51:26;;;;;;;45.73;20.12;;;;;;;0.87;85.19;100018.81;2010764;86;21067;-80
2022/01/27 13:54:54;;;;;;;46.98;22.15;;;;;;;0.88;85.20;100014.80;2015743;86;21149;-79
2022/01/27 13:58:00;;;;;;;35.17;17.15;;;;;;;0.93;85.30;100017.55;2020388;85;21753;-78
2022/01/27 14:01:13;;;;;;;33.65;16.17;;;;;;;0.94;85.36;100016.14;2001633;86;21091;-77
2022/01/27 14:04:16;;;;;;;38.17;17.90;;;;;;;0.96;85.66;100014.27;2000352;86;21115;-77
2022/01/27 14:07:34;;;;;;;37.85;17.95;;;;;;;0.98;85.64;100015.45;2018319;85;21040;-75
2022/01/27 14:10:47;;;;;;;32.25;16.20;;;;;;;0.95;85.73;100006.53;2016622;85;21527;-74
2022/01/27 14:13:59;;;;;;;32.85;16.35;;;;;;;0.94;85.79;100010.92;2017864;85;21177;-74
2022/01/27 14:17:10;;;;;;;33.63;16.93;;;;;;;0.95;85.98;100009.14;2022040;86;21062;-76
2022/01/27 14:20:16;;;;;;;34.20;16.60;;;;;;;0.93;86.04;100006.66;2013135;86;21085;-75
2022/01/27 14:27:04;;;;;;;34.15;15.28;;;;;;;0.83;86.27;99992.08;2010238;85;21368;-75
2022/01/27 14:30:12;;;;;;;32.40;15.63;;;;;;;0.79;86.41;100002.39;1997196;86;21066;-75
2022/01/27 14:33:23;;;;;;;30.90;15.13;;;;;;;0.81;86.40;99997.88;2023163;86;21534;-75
2022/01/27 14:36:31;;;;;;;26.10;14.35;;;;;;;0.84;86.50;100000.74;2006680;86;21075;-76
2022/01/27 14:39:38;;;;;;;28.77;14.25;;;;;;;0.86;86.52;99998.39;2023913;85;21059;-76
2022/01/27 14:42:45;;;;;;;25.72;13.13;;;;;;;0.88;86.93;99995.20;2001226;86;21061;-76
2022/01/27 14:45:50;;;;;;;32.83;16.42;;;;;;;0.89;86.89;99991.64;2014231;86;21049;-77
2022/01/27 14:49:00;;;;;;;36.93;17.15;;;;;;;0.94;87.01;99990.50;2047152;83;21080;-77
2022/01/27 14:52:10;;;;;;;40.52;18.95;;;;;;;0.98;86.96;99988.84;1977827;86;21651;-75
2022/01/27 14:55:09;;;;;;;34.92;17.75;;;;;;;0.99;87.03;99983.17;1973255;88;21077;-75
2022/01/27 14:58:15;;;;;;;30.72;16.37;;;;;;;1.00;87.15;99980.44;2017600;86;21726;-76
2022/01/27 15:01:28;;;;;;;33.20;15.98;;;;;;;1.02;87.22;99981.65;2013399;86;20968;-76
2022/01/27 15:04:34;;;;;;;30.12;16.48;;;;;;;1.05;87.25;99973.59;2025055;86;21074;-75
2022/01/27 15:08:06;;;;;;;29.67;15.38;;;;;;;1.09;87.25;99975.02;1975964;87;21031;-78
2022/01/27 15:11:11;;;;;;;34.85;16.57;;;;;;;1.14;87.20;99962.95;2044700;86;22539;-75
2022/01/27 15:21:02;;;;;;;35.60;18.73;;;;;;;1.23;87.57;99957.88;1986469;87;21049;-74
2022/01/27 15:24:20;;;;;;;31.17;17.12;;;;;;;1.25;87.64;99953.38;2052521;85;21023;-75
2022/01/27 15:27:19;;;;;;;33.35;17.45;;;;;;;1.27;87.73;99961.13;1990857;88;21144;-75
2022/01/27 15:30:23;;;;;;;29.37;14.85;;;;;;;1.30;87.85;99944.73;1988215;88;21081;-75
2022/01/27 15:33:33;;;;;;;27.13;13.68;;;;;;;1.32;87.95;99946.77;1970079;88;21566;-74
2022/01/27 15:36:34;;;;;;;27.55;15.32;;;;;;;1.36;87.86;99940.02;1969310;88;21101;-75
2022/01/27 15:39:48;;;;;;;27.20;15.88;;;;;;;1.38;87.86;99945.49;1954093;88;21060;-74
2022/01/27 15:42:50;;;;;;;26.57;13.90;;;;;;;1.40;87.92;99930.98;1982145;88;21039;-76
2022/01/27 15:45:59;;;;;;;;;;;;;;;1.46;87.89;99931.36;1990295;88;21588;-76